createdAt,value
2022-11-20T00:00:25.805Z,99852.81
2022-11-20T00:03:13.940Z,99860.13
2022-11-20T00:05:41.953Z,99851.69
2022-11-20T00:08:09.198Z,99846.31
2022-11-20T00:10:41.194Z,99858.28
2022-11-20T00:13:08.956Z,99857.28
2022-11-20T00:15:36.395Z,99857.91
2022-11-20T00:18:03.627Z,99860.00
2022-11-20T00:20:31.210Z,99857.56
2022-11-20T00:22:58.425Z,99862.63
2022-11-20T00:25:25.867Z,99849.44
2022-11-20T00:27:53.268Z,99845.16
2022-11-20T00:30:20.781Z,99846.50
2022-11-20T00:32:47.888Z,99847.50
2022-11-20T00:35:15.416Z,99843.16
2022-11-20T00:37:42.631Z,99852.19
2022-11-20T00:40:10.626Z,99848.63
2022-11-20T00:42:37.819Z,99857.50
2022-11-20T00:45:06.101Z,99847.44
2022-11-20T00:47:33.208Z,99856.66
2022-11-20T00:50:00.804Z,99855.59
2022-11-20T00:52:27.970Z,99855.25
2022-11-20T00:54:55.379Z,99858.75
2022-11-20T00:57:22.488Z,99855.47
2022-11-20T00:59:49.990Z,99857.91
2022-11-20T01:02:17.468Z,99852.91
2022-11-20T01:04:44.912Z,99863.41
2022-11-20T01:07:12.180Z,99867.22
2022-11-20T01:09:39.722Z,99865.50
2022-11-20T01:12:07.154Z,99858.34
2022-11-20T01:14:34.575Z,99850.47
2022-11-20T01:17:01.706Z,99862.53
2022-11-20T01:19:29.141Z,99854.75
2022-11-20T01:21:57.354Z,99844.38
2022-11-20T01:24:24.782Z,99847.16
2022-11-20T01:26:52.937Z,99851.13
2022-11-20T01:29:25.740Z,99841.06
2022-11-20T01:31:54.047Z,99854.34
2022-11-20T01:34:23.253Z,99847.25
2022-11-20T01:36:51.217Z,99856.84
2022-11-20T01:39:28.203Z,99856.31
2022-11-20T01:42:15.547Z,99857.97
2022-11-20T01:44:54.201Z,99856.47
2022-11-20T01:47:43.589Z,99857.78
2022-11-20T01:50:11.021Z,99853.75
2022-11-20T01:52:50.941Z,99853.81
2022-11-20T01:55:26.084Z,99851.31
2022-11-20T01:57:53.707Z,99843.31
2022-11-20T02:00:22.522Z,99857.75
2022-11-20T02:02:54.888Z,99845.69
2022-11-20T02:05:28.145Z,99856.78
2022-11-20T02:07:58.825Z,99852.63
2022-11-20T02:10:28.072Z,99854.22
2022-11-20T02:13:13.897Z,99849.63
2022-11-20T02:15:41.884Z,99851.41
2022-11-20T02:18:11.038Z,99855.09
2022-11-20T02:20:40.269Z,99848.44
2022-11-20T02:23:17.551Z,99860.63
2022-11-20T02:25:48.377Z,99866.78
2022-11-20T02:28:16.092Z,99854.34
2022-11-20T02:30:43.727Z,99864.94
2022-11-20T02:33:10.876Z,99851.47
2022-11-20T02:35:42.736Z,99849.94
2022-11-20T02:38:10.121Z,99847.16
2022-11-20T02:40:37.610Z,99842.72
2022-11-20T02:43:04.896Z,99846.81
2022-11-20T02:45:32.752Z,99851.59
2022-11-20T02:47:59.922Z,99847.88
2022-11-20T02:50:27.614Z,99846.19
2022-11-20T02:52:54.762Z,99846.81
2022-11-20T02:55:22.279Z,99843.84
2022-11-20T02:57:49.510Z,99834.78
2022-11-20T03:00:17.107Z,99841.88
2022-11-20T03:02:44.313Z,99830.28
2022-11-20T03:05:11.719Z,99823.78
2022-11-20T03:07:38.941Z,99832.16
2022-11-20T03:10:07.058Z,99831.28
2022-11-20T03:12:34.237Z,99832.28
2022-11-20T03:15:01.766Z,99831.91
2022-11-20T03:17:30.444Z,99830.66
2022-11-20T03:19:57.941Z,99825.63
2022-11-20T03:22:25.080Z,99817.09
2022-11-20T03:24:53.085Z,99815.47
2022-11-20T03:27:20.277Z,99815.72
2022-11-20T03:29:47.701Z,99811.91
2022-11-20T03:32:15.033Z,99824.91
2022-11-20T03:34:42.468Z,99825.84
2022-11-20T03:37:09.595Z,99819.19
2022-11-20T03:39:37.011Z,99821.00
2022-11-20T03:42:24.087Z,99825.69
2022-11-20T03:44:51.499Z,99813.56
2022-11-20T03:47:18.608Z,99795.22
2022-11-20T03:49:46.024Z,99812.97
2022-11-20T03:52:13.208Z,99798.25
2022-11-20T03:54:40.678Z,99809.41
2022-11-20T03:57:07.855Z,99802.31
2022-11-20T03:59:35.282Z,99805.34
2022-11-20T04:02:02.474Z,99804.16
2022-11-20T04:04:30.102Z,99802.97
2022-11-20T04:06:57.315Z,99805.34
2022-11-20T04:09:24.856Z,99799.69
2022-11-20T04:11:52.081Z,99793.00
2022-11-20T04:14:19.534Z,99808.53
2022-11-20T04:16:46.716Z,99804.47
2022-11-20T04:19:16.528Z,99806.34
2022-11-20T04:21:45.066Z,99803.91
2022-11-20T04:24:12.771Z,99804.03
2022-11-20T04:26:40.261Z,99800.44
2022-11-20T04:29:08.078Z,99796.22
2022-11-20T04:31:35.862Z,99798.41
2022-11-20T04:34:06.175Z,99786.25
2022-11-20T04:36:34.726Z,99786.19
2022-11-20T04:39:06.081Z,99793.13
2022-11-20T04:41:35.569Z,99786.53
2022-11-20T04:44:04.710Z,99797.38
2022-11-20T04:46:33.634Z,99796.19
2022-11-20T04:49:01.215Z,99781.41
2022-11-20T04:51:28.545Z,99792.91
2022-11-20T04:53:56.384Z,99786.19
2022-11-20T04:56:23.845Z,99774.19
2022-11-20T04:58:51.654Z,99779.78
2022-11-20T05:01:21.650Z,99772.88
2022-11-20T05:03:49.864Z,99778.06
2022-11-20T05:06:19.309Z,99773.72
2022-11-20T05:08:46.832Z,99764.97
2022-11-20T05:11:19.923Z,99756.09
2022-11-20T05:13:48.374Z,99768.28
2022-11-20T05:16:18.784Z,99776.09
2022-11-20T05:18:46.606Z,99758.59
2022-11-20T05:21:14.871Z,99766.50
2022-11-20T05:23:43.378Z,99756.69
2022-11-20T05:26:18.905Z,99759.56
2022-11-20T05:28:46.767Z,99762.50
2022-11-20T05:31:20.755Z,99753.34
2022-11-20T05:33:51.758Z,99760.28
2022-11-20T05:36:19.164Z,99766.66
2022-11-20T05:38:50.336Z,99748.66
2022-11-20T05:41:20.150Z,99757.72
2022-11-20T05:43:48.940Z,99744.69
2022-11-20T05:46:20.339Z,99745.13
2022-11-20T05:48:49.835Z,99742.28
2022-11-20T05:51:19.024Z,99749.63
2022-11-20T05:53:48.591Z,99751.03
2022-11-20T05:56:19.372Z,99743.59
2022-11-20T05:58:47.783Z,99739.44
2022-11-20T06:01:23.847Z,99747.66
2022-11-20T06:03:52.299Z,99745.34
2022-11-20T06:06:20.791Z,99741.94
2022-11-20T06:08:49.193Z,99745.50
2022-11-20T06:11:17.729Z,99738.31
2022-11-20T06:13:45.826Z,99743.31
2022-11-20T06:16:15.251Z,99730.56
2022-11-20T06:18:43.057Z,99740.19
2022-11-20T06:21:18.259Z,99737.50
2022-11-20T06:23:46.483Z,99743.41
2022-11-20T06:26:16.113Z,99740.75
2022-11-20T06:28:43.952Z,99738.19
2022-11-20T06:31:14.441Z,99741.38
2022-11-20T06:33:42.876Z,99741.50
2022-11-20T06:36:11.675Z,99729.38
2022-11-20T06:38:40.342Z,99728.22
2022-11-20T06:41:11.519Z,99741.34
2022-11-20T06:43:38.966Z,99738.03
2022-11-20T06:46:06.135Z,99751.56
2022-11-20T06:48:33.891Z,99744.19
2022-11-20T06:51:03.563Z,99747.78
2022-11-20T06:53:30.997Z,99749.50
2022-11-20T06:56:01.093Z,99746.91
2022-11-20T06:58:30.714Z,99750.69
2022-11-20T07:01:12.402Z,99754.31
2022-11-20T07:03:40.370Z,99761.28
2022-11-20T07:06:08.397Z,99752.19
2022-11-20T07:08:35.926Z,99761.69
2022-11-20T07:11:06.518Z,99759.75
2022-11-20T07:13:34.656Z,99760.53
2022-11-20T07:16:03.823Z,99763.66
2022-11-20T07:18:31.432Z,99759.59
2022-11-20T07:21:02.790Z,99758.28
2022-11-20T07:23:30.498Z,99763.59
2022-11-20T07:25:57.633Z,99757.19
2022-11-20T07:28:25.097Z,99757.00
2022-11-20T07:30:53.501Z,99763.06
2022-11-20T07:33:21.378Z,99749.09
2022-11-20T07:35:48.609Z,99753.16
2022-11-20T07:38:16.081Z,99743.91
2022-11-20T07:40:43.411Z,99748.09
2022-11-20T07:43:10.949Z,99751.03
2022-11-20T07:45:38.217Z,99733.88
2022-11-20T07:48:05.789Z,99754.16
2022-11-20T07:50:32.914Z,99741.06
2022-11-20T07:53:05.569Z,99745.34
2022-11-20T07:55:33.754Z,99737.75
2022-11-20T07:58:01.331Z,99739.44
2022-11-20T08:00:28.657Z,99736.66
2022-11-20T08:02:56.177Z,99742.06
2022-11-20T08:05:23.783Z,99739.06
2022-11-20T08:07:51.232Z,99743.19
2022-11-20T08:10:18.575Z,99742.31
2022-11-20T08:13:10.154Z,99738.97
2022-11-20T08:15:39.497Z,99729.78
2022-11-20T08:21:03.949Z,99721.34
2022-11-20T08:23:31.946Z,99726.47
2022-11-20T08:25:59.085Z,99723.28
2022-11-20T08:28:26.554Z,99725.84
2022-11-20T08:30:59.504Z,99728.09
2022-11-20T08:33:27.160Z,99722.50
2022-11-20T08:35:54.296Z,99724.16
2022-11-20T08:38:21.705Z,99735.13
2022-11-20T08:41:08.974Z,99723.69
2022-11-20T08:43:36.488Z,99733.38
2022-11-20T08:46:03.629Z,99725.69
2022-11-20T08:48:31.064Z,99715.94
2022-11-20T08:51:00.548Z,99709.97
2022-11-20T08:53:28.761Z,99716.13
2022-11-20T08:55:57.980Z,99709.00
2022-11-20T08:58:26.660Z,99708.28
2022-11-20T09:00:54.177Z,99695.03
2022-11-20T09:03:21.698Z,99713.91
2022-11-20T09:05:48.866Z,99705.38
2022-11-20T09:08:16.338Z,99711.81
2022-11-20T09:10:43.554Z,99709.00
2022-11-20T09:13:11.118Z,99695.00
2022-11-20T09:15:38.303Z,99697.28
2022-11-20T09:18:06.038Z,99701.16
2022-11-20T09:20:33.173Z,99693.06
2022-11-20T09:23:00.623Z,99678.13
2022-11-20T09:25:27.976Z,99687.97
2022-11-20T09:27:59.597Z,99685.94
2022-11-20T09:30:27.994Z,99684.16
2022-11-20T09:32:55.852Z,99672.09
2022-11-20T09:35:23.341Z,99669.31
2022-11-20T09:37:50.896Z,99679.69
2022-11-20T09:40:27.470Z,99668.47
2022-11-20T09:43:20.246Z,99672.09
2022-11-20T09:46:08.568Z,99676.69
2022-11-20T09:48:54.212Z,99660.31
2022-11-20T09:51:34.098Z,99657.22
2022-11-20T09:54:19.091Z,99659.00
2022-11-20T09:56:54.722Z,99667.97
2022-11-20T09:59:34.882Z,99662.66
2022-11-20T10:02:07.503Z,99666.22
2022-11-20T10:04:39.668Z,99663.31
2022-11-20T10:07:36.011Z,99655.50
2022-11-20T10:10:03.726Z,99648.91
2022-11-20T10:12:56.893Z,99666.41
2022-11-20T10:15:34.935Z,99664.16
2022-11-20T10:18:28.463Z,99664.66
2022-11-20T10:21:14.381Z,99654.06
2022-11-20T10:23:57.525Z,99659.63
2022-11-20T10:26:36.824Z,99655.13
2022-11-20T10:29:15.642Z,99655.38
2022-11-20T10:31:51.869Z,99645.06
2022-11-20T10:34:44.987Z,99647.16
2022-11-20T10:37:27.330Z,99641.00
2022-11-20T10:40:01.745Z,99654.56
2022-11-20T10:42:45.987Z,99644.75
2022-11-20T10:45:25.407Z,99654.66
2022-11-20T10:48:09.063Z,99646.59
2022-11-20T10:50:50.810Z,99643.81
2022-11-20T10:53:36.517Z,99642.25
2022-11-20T10:56:18.796Z,99636.41
2022-11-20T10:59:17.765Z,99641.56
2022-11-20T11:01:45.039Z,99625.41
2022-11-20T11:04:34.047Z,99626.09
2022-11-20T11:07:19.001Z,99631.53
2022-11-20T11:10:32.985Z,99625.06
2022-11-20T11:13:00.165Z,99617.75
2022-11-20T11:15:38.301Z,99614.13
2022-11-20T11:18:06.163Z,99630.53
2022-11-20T11:20:33.613Z,99614.13
2022-11-20T11:23:01.276Z,99634.19
2022-11-20T11:25:36.753Z,99624.75
2022-11-20T11:28:20.777Z,99613.16
2022-11-20T11:30:50.337Z,99616.47
2022-11-20T11:33:35.870Z,99620.38
2022-11-20T11:36:19.194Z,99604.47
2022-11-20T11:38:46.733Z,99617.50
2022-11-20T11:41:19.897Z,99600.91
2022-11-20T11:44:19.358Z,99598.63
2022-11-20T11:46:56.296Z,99606.94
2022-11-20T11:49:23.681Z,99603.84
2022-11-20T11:52:11.488Z,99597.03
2022-11-20T11:54:55.442Z,99589.94
2022-11-20T11:57:38.069Z,99589.09
2022-11-20T12:00:15.491Z,99594.13
2022-11-20T12:02:45.906Z,99594.69
2022-11-20T12:05:41.220Z,99582.38
2022-11-20T12:08:40.116Z,99580.34
2022-11-20T12:11:31.004Z,99575.78
2022-11-20T12:14:20.890Z,99573.56
2022-11-20T12:16:48.069Z,99572.09
2022-11-20T12:19:15.883Z,99570.06
2022-11-20T12:22:08.720Z,99555.41
2022-11-20T12:24:53.320Z,99571.69
2022-11-20T12:27:29.564Z,99567.47
2022-11-20T12:30:09.267Z,99554.38
2022-11-20T12:33:13.256Z,99556.25
2022-11-20T12:36:28.602Z,99551.22
2022-11-20T12:39:14.045Z,99557.56
2022-11-20T12:42:30.131Z,99547.13
2022-11-20T12:45:24.120Z,99533.00
2022-11-20T12:48:10.156Z,99532.78
2022-11-20T12:51:14.625Z,99546.28
2022-11-20T12:53:54.965Z,99541.72
2022-11-20T12:56:29.922Z,99529.16
2022-11-20T12:59:19.391Z,99534.81
2022-11-20T13:01:53.871Z,99527.22
2022-11-20T13:04:48.548Z,99530.56
2022-11-20T13:07:17.399Z,99508.50
2022-11-20T13:09:47.821Z,99523.09
2022-11-20T13:12:31.935Z,99492.53
2022-11-20T13:15:12.850Z,99504.22
2022-11-20T13:17:43.752Z,99510.22
2022-11-20T13:20:18.218Z,99504.16
2022-11-20T13:22:46.977Z,99512.63
2022-11-20T13:25:28.385Z,99502.78
2022-11-20T13:27:58.058Z,99513.63
2022-11-20T13:30:30.283Z,99502.91
2022-11-20T13:33:00.865Z,99494.53
2022-11-20T13:35:56.131Z,99501.38
2022-11-20T13:38:23.305Z,99499.03
2022-11-20T13:40:57.158Z,99486.03
2022-11-20T13:43:38.305Z,99488.03
2022-11-20T13:46:08.341Z,99489.19
2022-11-20T13:48:43.579Z,99496.38
2022-11-20T13:51:33.278Z,99486.25
2022-11-20T13:54:27.470Z,99495.47
2022-11-20T13:57:13.244Z,99490.16
2022-11-20T13:59:55.580Z,99493.63
2022-11-20T14:02:26.052Z,99485.13
2022-11-20T14:04:55.605Z,99475.28
2022-11-20T14:07:36.101Z,99485.03
2022-11-20T14:10:03.926Z,99469.56
2022-11-20T14:12:34.139Z,99463.28
2022-11-20T14:15:01.325Z,99475.19
2022-11-20T14:17:34.589Z,99460.78
2022-11-20T14:20:07.428Z,99466.47
2022-11-20T14:22:34.906Z,99477.06
2022-11-20T14:25:13.209Z,99470.84
2022-11-20T14:27:43.243Z,99456.59
2022-11-20T14:30:22.173Z,99448.19
2022-11-20T14:32:50.872Z,99460.59
2022-11-20T14:35:30.251Z,99456.59
2022-11-20T14:37:58.314Z,99448.97
2022-11-20T14:40:37.928Z,99455.63
2022-11-20T14:43:25.225Z,99458.22
2022-11-20T14:46:04.951Z,99453.13
2022-11-20T14:48:41.962Z,99443.75
2022-11-20T14:51:24.075Z,99446.16
2022-11-20T14:53:52.105Z,99437.16
2022-11-20T14:56:25.160Z,99446.16
2022-11-20T14:58:59.080Z,99438.94
2022-11-20T15:01:30.848Z,99430.19
2022-11-20T15:04:02.665Z,99436.53
2022-11-20T15:06:30.606Z,99426.25
2022-11-20T15:08:58.555Z,99424.56
2022-11-20T15:11:36.809Z,99430.50
2022-11-20T15:14:07.721Z,99421.19
2022-11-20T15:16:35.033Z,99419.66
2022-11-20T15:19:03.903Z,99419.53
2022-11-20T15:21:31.186Z,99418.78
2022-11-20T15:23:59.424Z,99411.84
2022-11-20T15:26:28.390Z,99415.53
2022-11-20T15:28:56.174Z,99411.66
2022-11-20T15:31:24.765Z,99406.00
2022-11-20T15:33:52.319Z,99400.31
2022-11-20T15:36:19.611Z,99394.69
2022-11-20T15:38:47.214Z,99410.81
2022-11-20T15:41:14.585Z,99402.50
2022-11-20T15:43:42.092Z,99403.06
2022-11-20T15:46:18.207Z,99378.97
2022-11-20T15:48:49.780Z,99386.22
2022-11-20T15:51:27.386Z,99391.63
2022-11-20T15:53:56.198Z,99390.63
2022-11-20T15:56:23.509Z,99380.19
2022-11-20T15:58:50.970Z,99376.34
2022-11-20T16:01:21.781Z,99375.22
2022-11-20T16:03:49.928Z,99375.13
2022-11-20T16:06:20.124Z,99373.88
2022-11-20T16:08:47.636Z,99367.00
2022-11-20T16:11:16.501Z,99372.25
2022-11-20T16:14:03.001Z,99363.25
2022-11-20T16:16:37.400Z,99369.72
2022-11-20T16:19:05.503Z,99368.69
2022-11-20T16:21:32.989Z,99364.06
2022-11-20T16:24:06.409Z,99362.50
2022-11-20T16:26:33.798Z,99350.34
2022-11-20T16:29:02.236Z,99356.78
2022-11-20T16:31:29.713Z,99359.28
2022-11-20T16:34:00.579Z,99364.09
2022-11-20T16:36:29.608Z,99352.06
2022-11-20T16:38:59.566Z,99341.19
2022-11-20T16:41:28.659Z,99357.22
2022-11-20T16:43:58.300Z,99345.16
2022-11-20T16:46:30.971Z,99335.56
2022-11-20T16:48:59.494Z,99346.78
2022-11-20T16:51:28.917Z,99340.81
2022-11-20T16:53:57.234Z,99346.22
2022-11-20T16:56:26.922Z,99347.34
2022-11-20T16:58:57.362Z,99344.78
2022-11-20T17:01:26.462Z,99341.16
2022-11-20T17:03:59.462Z,99345.53
2022-11-20T17:06:29.112Z,99343.59
2022-11-20T17:08:57.971Z,99341.84
2022-11-20T17:11:26.868Z,99353.91
2022-11-20T17:14:00.753Z,99345.56
2022-11-20T17:16:28.522Z,99342.69
2022-11-20T17:19:02.513Z,99339.38
2022-11-20T17:21:31.592Z,99346.44
2022-11-20T17:24:04.773Z,99342.34
2022-11-20T17:26:32.665Z,99338.13
2022-11-20T17:29:03.080Z,99342.03
2022-11-20T17:31:31.795Z,99331.16
2022-11-20T17:34:00.449Z,99324.19
2022-11-20T17:36:29.174Z,99323.09
2022-11-20T17:38:56.654Z,99325.63
2022-11-20T17:41:26.104Z,99323.69
2022-11-20T17:43:58.985Z,99316.31
2022-11-20T17:46:28.907Z,99328.53
2022-11-20T17:48:56.642Z,99321.75
2022-11-20T17:51:26.507Z,99320.97
2022-11-20T17:53:57.152Z,99311.97
2022-11-20T17:56:42.985Z,99308.75
2022-11-20T17:59:12.397Z,99309.97
2022-11-20T18:01:42.989Z,99306.78
2022-11-20T18:04:11.524Z,99294.84
2022-11-20T18:06:38.878Z,99290.97
2022-11-20T18:09:07.114Z,99293.63
2022-11-20T18:11:37.201Z,99292.56
2022-11-20T18:14:26.102Z,99288.38
2022-11-20T18:16:58.792Z,99277.50
2022-11-20T18:19:32.455Z,99286.34
2022-11-20T18:22:01.980Z,99283.28
2022-11-20T18:24:29.866Z,99279.72
2022-11-20T18:26:58.438Z,99281.75
2022-11-20T18:29:27.036Z,99280.59
2022-11-20T18:31:54.673Z,99270.22
2022-11-20T18:34:22.725Z,99277.84
2022-11-20T18:36:51.398Z,99278.19
2022-11-20T18:39:19.033Z,99270.91
2022-11-20T18:42:04.777Z,99264.81
2022-11-20T18:44:51.491Z,99264.88
2022-11-20T18:47:31.061Z,99275.56
2022-11-20T18:50:01.120Z,99266.06
2022-11-20T18:52:34.077Z,99265.06
2022-11-20T18:55:02.911Z,99268.88
2022-11-20T18:57:31.825Z,99260.69
2022-11-20T19:00:03.509Z,99258.84
2022-11-20T19:02:39.422Z,99260.38
2022-11-20T19:05:13.523Z,99266.03
2022-11-20T19:07:41.120Z,99252.91
2022-11-20T19:10:09.277Z,99263.16
2022-11-20T19:12:36.527Z,99262.41
2022-11-20T19:15:04.909Z,99256.41
2022-11-20T19:17:33.718Z,99257.41
2022-11-20T19:20:01.380Z,99257.16
2022-11-20T19:22:28.632Z,99254.28
2022-11-20T19:24:56.107Z,99250.78
2022-11-20T19:27:23.405Z,99255.13
2022-11-20T19:29:50.930Z,99251.88
2022-11-20T19:32:18.070Z,99253.97
2022-11-20T19:34:45.522Z,99268.34
2022-11-20T19:37:13.221Z,99263.91
2022-11-20T19:39:40.836Z,99260.69
2022-11-20T19:42:07.998Z,99265.09
2022-11-20T19:44:35.964Z,99261.56
2022-11-20T19:47:08.979Z,99252.31
2022-11-20T19:49:38.284Z,99258.69
2022-11-20T19:52:05.663Z,99263.72
2022-11-20T19:54:33.251Z,99262.75
2022-11-20T19:57:00.542Z,99265.81
2022-11-20T19:59:28.441Z,99268.28
2022-11-20T20:01:55.658Z,99252.38
2022-11-20T20:04:23.195Z,99266.66
2022-11-20T20:06:50.831Z,99258.91
2022-11-20T20:09:18.707Z,99260.72
2022-11-20T20:11:47.160Z,99262.06
2022-11-20T20:14:16.578Z,99254.09
2022-11-20T20:16:43.991Z,99265.66
2022-11-20T20:19:13.622Z,99255.84
2022-11-20T20:21:41.566Z,99255.72
2022-11-20T20:24:10.648Z,99260.75
2022-11-20T20:26:38.195Z,99255.72
2022-11-20T20:29:05.855Z,99261.19
2022-11-20T20:31:34.060Z,99252.88
2022-11-20T20:34:03.514Z,99266.88
2022-11-20T20:36:30.989Z,99254.94
2022-11-20T20:39:05.157Z,99256.13
2022-11-20T20:41:32.848Z,99258.50
2022-11-20T20:44:20.480Z,99265.25
2022-11-20T20:46:47.710Z,99266.81
2022-11-20T20:49:15.174Z,99265.97
2022-11-20T20:51:42.374Z,99249.34
2022-11-20T20:54:09.922Z,99273.69
2022-11-20T20:56:37.080Z,99266.88
2022-11-20T20:59:04.608Z,99268.50
2022-11-20T21:01:31.919Z,99259.63
2022-11-20T21:03:59.623Z,99273.00
2022-11-20T21:06:26.861Z,99261.59
2022-11-20T21:08:56.053Z,99258.97
2022-11-20T21:11:23.406Z,99269.78
2022-11-20T21:13:50.964Z,99267.72
2022-11-20T21:16:20.709Z,99261.00
2022-11-20T21:18:49.215Z,99269.41
2022-11-20T21:21:36.152Z,99259.66
2022-11-20T21:24:04.421Z,99267.06
2022-11-20T21:26:31.643Z,99258.81
2022-11-20T21:28:59.185Z,99254.16
2022-11-20T21:31:27.138Z,99257.50
2022-11-20T21:33:56.668Z,99255.03
2022-11-20T21:36:26.646Z,99259.09
2022-11-20T21:38:55.491Z,99262.59
2022-11-20T21:41:24.478Z,99260.09
2022-11-20T21:44:16.310Z,99258.13
2022-11-20T21:46:45.144Z,99265.56
2022-11-20T21:49:12.709Z,99259.28
2022-11-20T21:51:40.564Z,99261.97
2022-11-20T21:54:09.539Z,99251.59
2022-11-20T21:56:37.008Z,99256.94
2022-11-20T21:59:04.306Z,99257.78
2022-11-20T22:01:32.109Z,99263.13
2022-11-20T22:04:01.644Z,99255.03
2022-11-20T22:06:34.103Z,99246.19
2022-11-20T22:09:04.405Z,99252.28
2022-11-20T22:11:31.915Z,99250.84
2022-11-20T22:14:18.057Z,99255.13
2022-11-20T22:16:45.517Z,99256.16
2022-11-20T22:19:16.256Z,99244.00
2022-11-20T22:21:43.790Z,99239.44
2022-11-20T22:24:16.057Z,99250.81
2022-11-20T22:26:44.274Z,99239.63
2022-11-20T22:29:16.600Z,99245.78
2022-11-20T22:31:44.127Z,99248.81
2022-11-20T22:34:12.701Z,99239.44
2022-11-20T22:36:40.950Z,99234.75
2022-11-20T22:39:08.160Z,99241.53
2022-11-20T22:41:35.684Z,99232.41
2022-11-20T22:44:05.978Z,99233.25
2022-11-20T22:46:35.362Z,99229.75
2022-11-20T22:49:05.887Z,99225.91
2022-11-20T22:51:39.261Z,99233.44
2022-11-20T22:54:07.584Z,99226.84
2022-11-20T22:56:35.220Z,99228.16
2022-11-20T22:59:02.720Z,99232.88
2022-11-20T23:01:32.323Z,99230.91
2022-11-20T23:04:01.836Z,99213.94
2022-11-20T23:06:30.064Z,99221.03
2022-11-20T23:08:57.625Z,99222.88
2022-11-20T23:11:27.560Z,99228.91
2022-11-20T23:14:03.819Z,99224.38
2022-11-20T23:16:32.428Z,99229.31
2022-11-20T23:19:02.609Z,99215.81
2022-11-20T23:21:30.124Z,99213.81
2022-11-20T23:23:58.573Z,99214.69
2022-11-20T23:26:32.307Z,99209.19
2022-11-20T23:29:00.598Z,99219.69
2022-11-20T23:31:30.160Z,99216.44
2022-11-20T23:33:58.828Z,99212.22
2022-11-20T23:36:26.431Z,99202.19
2022-11-20T23:38:53.921Z,99206.41
2022-11-20T23:41:21.104Z,99212.31
2022-11-20T23:43:48.550Z,99215.44
2022-11-20T23:46:16.886Z,99218.72
2022-11-20T23:48:45.537Z,99212.03
2022-11-20T23:51:13.521Z,99196.72
2022-11-20T23:53:41.000Z,99194.09
2022-11-20T23:56:08.592Z,99181.91
2022-11-20T23:58:38.134Z,99191.34
